North Pole, AK (99705)

2:58 AM AKDT on September 01, 2015 (GMT -0800)
Brookside Subdivision Jim-Tom | | Change Station
CLOSE
Current Station
Personal Weather Station
Location: North Pole, AK
Elevation: 482 ft
Nearby Weather Stations

Elev 482 ft 64.76 °N, 147.33 °W | Updated 2 seconds ago

Overcast
Overcast
40.0 °F
Feels Like 40 °F
N
0.0
Wind Variable Wind from NNE
Gusts 0.2 mph

Today
High -- | Low -- °F
--% Chance of Precip.
Yesterday
High -- | Low -- °F
Precip. -- in
6:29 AM 9:07 PM
Waning Gibbous, 89% visible
Pressure 29.95 in
Visibility 10.0 miles
Clouds Overcast 7000 ft
Windchill 40 °F
Dew Point 36 °F
Humidity 84%
Rainfall 0.00 in
Snow Depth Not available.
UV 0 out of 12
Pollen Not available.
Air Quality Not available.
Flu Activity Not available.
METAR PAFB 010958Z AUTO 21001KT 10SM OVC070 04/03 A2993 RMK AO2 SLP141 T00380031 $
Pressure 29.95 in
Visibility 10.0 miles
Clouds Overcast 7000 ft
Windchill 40 °F
Dew Point 36 °F
Humidity 84%
Rainfall 0.00 in
Snow Depth Not available.
UV 0 out of 12
Pollen Not available.
Air Quality Not available.
Flu Activity Not available.
METAR PAFB 010958Z AUTO 21001KT 10SM OVC070 04/03 A2993 RMK AO2 SLP141 T00380031 $

10-Day Weather Forecast

×

Almanac

Astronomy

Sep. 01, 2015 Rise Set
Actual Time
Civil Twilight
Nautical Twilight
Astronomical Twilight
Moon
Length of Visible Light
Length of Day
Tomorrow will be .
, % of the Moon is Illuminated

Today's Extremes

State Highs State Lows

Community

WunderPhotos

Upload Photos

1,851,501 photos uploaded!

WunderBlogs® & News

Nearby

Air Quality

  Air Quality AQ Index Pollutant
Not available.

Snow Depth

Station Depth Elevation

Earthquake Activity

City Distance Mag. Time & Date
Minimum magnitude displayed is 2.5.

Coastal Water Temperatures

Place Temperature

Stations

Nearby Weather Stations

Station Location Temp. Windchill Dew Point Humidity Wind Precip. Elev Updated Type